<?xml version="1.0" encoding="UTF-8" standalone="no" ?>
<gpx xmlns="http://www.topografix.com/GPX/1/1" xmlns:xsi="http://www.w3.org/2001/XMLSchema-instance" xsi:schemaLocation="http://www.topografix.com/GPX/1/1 http://www.topografix.com/GPX/1/1/gpx.xsd" version="1.1" creator="VisuGPX - https://www.visugpx.com">
  <metadata>
    <name>le jardin aux moines</name>
    <desc><![CDATA[site mégalithique du jardin aux moines autour de tréhorenteuc]]></desc>
  </metadata>
  <trk>
    <name><![CDATA[JARDIN DES MOINES54]]></name>
    <trkseg>
      <trkpt lat="48.00575" lon="-2.28669">
        <ele>95.31</ele>
        <time>2016-07-06T11:41:55Z</time>
      </trkpt>
      <trkpt lat="48.00575" lon="-2.28666">
        <ele>94.83</ele>
        <time>2016-07-06T11:42:25Z</time>
      </trkpt>
      <trkpt lat="48.00591" lon="-2.28657">
        <ele>94.83</ele>
        <time>2016-07-06T11:42:55Z</time>
      </trkpt>
      <trkpt lat="48.00618" lon="-2.28637">
        <ele>95.79</ele>
        <time>2016-07-06T11:43:25Z</time>
      </trkpt>
      <trkpt lat="48.00649" lon="-2.28633">
        <ele>97.23</ele>
        <time>2016-07-06T11:43:55Z</time>
      </trkpt>
      <trkpt lat="48.0068" lon="-2.28631">
        <ele>97.71</ele>
        <time>2016-07-06T11:44:25Z</time>
      </trkpt>
      <trkpt lat="48.00718" lon="-2.28639">
        <ele>97.71</ele>
        <time>2016-07-06T11:44:55Z</time>
      </trkpt>
      <trkpt lat="48.00743" lon="-2.28668">
        <ele>96.75</ele>
        <time>2016-07-06T11:45:25Z</time>
      </trkpt>
      <trkpt lat="48.00774" lon="-2.2867">
        <ele>96.75</ele>
        <time>2016-07-06T11:45:55Z</time>
      </trkpt>
      <trkpt lat="48.00793" lon="-2.28645">
        <ele>97.23</ele>
        <time>2016-07-06T11:46:25Z</time>
      </trkpt>
      <trkpt lat="48.00802" lon="-2.28595">
        <ele>97.71</ele>
        <time>2016-07-06T11:46:55Z</time>
      </trkpt>
      <trkpt lat="48.00805" lon="-2.28548">
        <ele>97.23</ele>
        <time>2016-07-06T11:47:25Z</time>
      </trkpt>
      <trkpt lat="48.00824" lon="-2.28539">
        <ele>98.19</ele>
        <time>2016-07-06T11:47:55Z</time>
      </trkpt>
      <trkpt lat="48.0084" lon="-2.28537">
        <ele>98.67</ele>
        <time>2016-07-06T11:48:25Z</time>
      </trkpt>
      <trkpt lat="48.00867" lon="-2.28526">
        <ele>98.67</ele>
        <time>2016-07-06T11:48:55Z</time>
      </trkpt>
      <trkpt lat="48.0089" lon="-2.28501">
        <ele>100.11</ele>
        <time>2016-07-06T11:49:25Z</time>
      </trkpt>
      <trkpt lat="48.00911" lon="-2.28457">
        <ele>100.6</ele>
        <time>2016-07-06T11:49:55Z</time>
      </trkpt>
      <trkpt lat="48.00933" lon="-2.28412">
        <ele>101.56</ele>
        <time>2016-07-06T11:50:25Z</time>
      </trkpt>
      <trkpt lat="48.00955" lon="-2.28366">
        <ele>103</ele>
        <time>2016-07-06T11:50:55Z</time>
      </trkpt>
      <trkpt lat="48.00984" lon="-2.28334">
        <ele>103</ele>
        <time>2016-07-06T11:51:25Z</time>
      </trkpt>
      <trkpt lat="48.01014" lon="-2.28313">
        <ele>104.92</ele>
        <time>2016-07-06T11:51:55Z</time>
      </trkpt>
      <trkpt lat="48.01046" lon="-2.28295">
        <ele>107.32</ele>
        <time>2016-07-06T11:52:25Z</time>
      </trkpt>
      <trkpt lat="48.01078" lon="-2.28272">
        <ele>109.25</ele>
        <time>2016-07-06T11:52:55Z</time>
      </trkpt>
      <trkpt lat="48.01089" lon="-2.28257">
        <ele>108.77</ele>
        <time>2016-07-06T11:53:25Z</time>
      </trkpt>
      <trkpt lat="48.01111" lon="-2.28223">
        <ele>109.73</ele>
        <time>2016-07-06T11:53:55Z</time>
      </trkpt>
      <trkpt lat="48.01137" lon="-2.28184">
        <ele>109.73</ele>
        <time>2016-07-06T11:54:25Z</time>
      </trkpt>
      <trkpt lat="48.01162" lon="-2.28145">
        <ele>109.73</ele>
        <time>2016-07-06T11:54:55Z</time>
      </trkpt>
      <trkpt lat="48.01191" lon="-2.28105">
        <ele>110.21</ele>
        <time>2016-07-06T11:55:25Z</time>
      </trkpt>
      <trkpt lat="48.01215" lon="-2.28072">
        <ele>110.69</ele>
        <time>2016-07-06T11:55:55Z</time>
      </trkpt>
      <trkpt lat="48.01248" lon="-2.28048">
        <ele>111.65</ele>
        <time>2016-07-06T11:56:25Z</time>
      </trkpt>
      <trkpt lat="48.01282" lon="-2.28028">
        <ele>113.09</ele>
        <time>2016-07-06T11:56:55Z</time>
      </trkpt>
      <trkpt lat="48.01314" lon="-2.28014">
        <ele>114.53</ele>
        <time>2016-07-06T11:57:25Z</time>
      </trkpt>
      <trkpt lat="48.01321" lon="-2.28017">
        <ele>115.01</ele>
        <time>2016-07-06T11:57:55Z</time>
      </trkpt>
      <trkpt lat="48.01321" lon="-2.28016">
        <ele>115.01</ele>
        <time>2016-07-06T11:58:25Z</time>
      </trkpt>
      <trkpt lat="48.01349" lon="-2.27994">
        <ele>116.46</ele>
        <time>2016-07-06T11:58:55Z</time>
      </trkpt>
      <trkpt lat="48.01369" lon="-2.27963">
        <ele>116.94</ele>
        <time>2016-07-06T11:59:25Z</time>
      </trkpt>
      <trkpt lat="48.01389" lon="-2.27919">
        <ele>117.9</ele>
        <time>2016-07-06T11:59:55Z</time>
      </trkpt>
      <trkpt lat="48.01396" lon="-2.27864">
        <ele>118.86</ele>
        <time>2016-07-06T12:00:25Z</time>
      </trkpt>
      <trkpt lat="48.01402" lon="-2.27818">
        <ele>119.34</ele>
        <time>2016-07-06T12:00:55Z</time>
      </trkpt>
      <trkpt lat="48.01412" lon="-2.27768">
        <ele>120.3</ele>
        <time>2016-07-06T12:01:25Z</time>
      </trkpt>
      <trkpt lat="48.01415" lon="-2.27737">
        <ele>119.82</ele>
        <time>2016-07-06T12:01:55Z</time>
      </trkpt>
      <trkpt lat="48.01427" lon="-2.27696">
        <ele>120.3</ele>
        <time>2016-07-06T12:02:25Z</time>
      </trkpt>
      <trkpt lat="48.01449" lon="-2.27651">
        <ele>121.26</ele>
        <time>2016-07-06T12:02:55Z</time>
      </trkpt>
      <trkpt lat="48.01461" lon="-2.27604">
        <ele>121.74</ele>
        <time>2016-07-06T12:03:25Z</time>
      </trkpt>
      <trkpt lat="48.01471" lon="-2.27551">
        <ele>121.74</ele>
        <time>2016-07-06T12:03:55Z</time>
      </trkpt>
      <trkpt lat="48.01483" lon="-2.27493">
        <ele>121.74</ele>
        <time>2016-07-06T12:04:25Z</time>
      </trkpt>
      <trkpt lat="48.01489" lon="-2.27435">
        <ele>122.71</ele>
        <time>2016-07-06T12:04:55Z</time>
      </trkpt>
      <trkpt lat="48.01501" lon="-2.27389">
        <ele>123.19</ele>
        <time>2016-07-06T12:05:25Z</time>
      </trkpt>
      <trkpt lat="48.01502" lon="-2.27359">
        <ele>123.19</ele>
        <time>2016-07-06T12:05:55Z</time>
      </trkpt>
      <trkpt lat="48.01504" lon="-2.27315">
        <ele>122.71</ele>
        <time>2016-07-06T12:06:25Z</time>
      </trkpt>
      <trkpt lat="48.01506" lon="-2.2728">
        <ele>122.71</ele>
        <time>2016-07-06T12:06:55Z</time>
      </trkpt>
      <trkpt lat="48.01493" lon="-2.27223">
        <ele>123.67</ele>
        <time>2016-07-06T12:07:25Z</time>
      </trkpt>
      <trkpt lat="48.0151" lon="-2.27184">
        <ele>124.63</ele>
        <time>2016-07-06T12:07:55Z</time>
      </trkpt>
      <trkpt lat="48.01528" lon="-2.27156">
        <ele>127.51</ele>
        <time>2016-07-06T12:08:25Z</time>
      </trkpt>
      <trkpt lat="48.0154" lon="-2.27107">
        <ele>129.43</ele>
        <time>2016-07-06T12:08:55Z</time>
      </trkpt>
      <trkpt lat="48.01548" lon="-2.27068">
        <ele>130.4</ele>
        <time>2016-07-06T12:09:25Z</time>
      </trkpt>
      <trkpt lat="48.01564" lon="-2.27022">
        <ele>130.88</ele>
        <time>2016-07-06T12:09:55Z</time>
      </trkpt>
      <trkpt lat="48.01565" lon="-2.26978">
        <ele>130.88</ele>
        <time>2016-07-06T12:10:25Z</time>
      </trkpt>
      <trkpt lat="48.01572" lon="-2.26927">
        <ele>131.84</ele>
        <time>2016-07-06T12:10:55Z</time>
      </trkpt>
      <trkpt lat="48.01584" lon="-2.26871">
        <ele>133.28</ele>
        <time>2016-07-06T12:11:25Z</time>
      </trkpt>
      <trkpt lat="48.01593" lon="-2.26823">
        <ele>134.24</ele>
        <time>2016-07-06T12:11:55Z</time>
      </trkpt>
      <trkpt lat="48.01589" lon="-2.26831">
        <ele>134.24</ele>
        <time>2016-07-06T12:12:25Z</time>
      </trkpt>
      <trkpt lat="48.01587" lon="-2.26817">
        <ele>134.24</ele>
        <time>2016-07-06T12:12:55Z</time>
      </trkpt>
      <trkpt lat="48.01581" lon="-2.26815">
        <ele>134.24</ele>
        <time>2016-07-06T12:13:25Z</time>
      </trkpt>
      <trkpt lat="48.01607" lon="-2.26794">
        <ele>135.2</ele>
        <time>2016-07-06T12:13:55Z</time>
      </trkpt>
      <trkpt lat="48.01611" lon="-2.26792">
        <ele>136.16</ele>
        <time>2016-07-06T12:14:25Z</time>
      </trkpt>
      <trkpt lat="48.01607" lon="-2.26802">
        <ele>136.16</ele>
        <time>2016-07-06T12:14:55Z</time>
      </trkpt>
      <trkpt lat="48.01619" lon="-2.26769">
        <ele>136.64</ele>
        <time>2016-07-06T12:15:25Z</time>
      </trkpt>
      <trkpt lat="48.01621" lon="-2.26757">
        <ele>137.13</ele>
        <time>2016-07-06T12:15:55Z</time>
      </trkpt>
      <trkpt lat="48.01626" lon="-2.26757">
        <ele>137.61</ele>
        <time>2016-07-06T12:16:25Z</time>
      </trkpt>
      <trkpt lat="48.01659" lon="-2.26731">
        <ele>139.05</ele>
        <time>2016-07-06T12:16:55Z</time>
      </trkpt>
      <trkpt lat="48.01676" lon="-2.267">
        <ele>140.97</ele>
        <time>2016-07-06T12:17:25Z</time>
      </trkpt>
      <trkpt lat="48.01698" lon="-2.26666">
        <ele>143.85</ele>
        <time>2016-07-06T12:17:55Z</time>
      </trkpt>
      <trkpt lat="48.01728" lon="-2.26638">
        <ele>146.26</ele>
        <time>2016-07-06T12:18:25Z</time>
      </trkpt>
      <trkpt lat="48.01747" lon="-2.26595">
        <ele>147.7</ele>
        <time>2016-07-06T12:18:55Z</time>
      </trkpt>
      <trkpt lat="48.01743" lon="-2.26598">
        <ele>148.18</ele>
        <time>2016-07-06T12:19:25Z</time>
      </trkpt>
      <trkpt lat="48.01738" lon="-2.2659">
        <ele>148.66</ele>
        <time>2016-07-06T12:19:55Z</time>
      </trkpt>
      <trkpt lat="48.01742" lon="-2.2659">
        <ele>148.66</ele>
        <time>2016-07-06T12:20:25Z</time>
      </trkpt>
      <trkpt lat="48.01754" lon="-2.26567">
        <ele>150.1</ele>
        <time>2016-07-06T12:20:55Z</time>
      </trkpt>
      <trkpt lat="48.01757" lon="-2.26517">
        <ele>150.58</ele>
        <time>2016-07-06T12:21:25Z</time>
      </trkpt>
      <trkpt lat="48.01761" lon="-2.26486">
        <ele>152.51</ele>
        <time>2016-07-06T12:21:55Z</time>
      </trkpt>
      <trkpt lat="48.01774" lon="-2.26486">
        <ele>154.43</ele>
        <time>2016-07-06T12:22:25Z</time>
      </trkpt>
      <trkpt lat="48.01759" lon="-2.26483">
        <ele>154.43</ele>
        <time>2016-07-06T12:22:55Z</time>
      </trkpt>
      <trkpt lat="48.01765" lon="-2.26498">
        <ele>153.95</ele>
        <time>2016-07-06T12:23:25Z</time>
      </trkpt>
      <trkpt lat="48.01769" lon="-2.26488">
        <ele>153.95</ele>
        <time>2016-07-06T12:23:55Z</time>
      </trkpt>
      <trkpt lat="48.01768" lon="-2.26494">
        <ele>153.95</ele>
        <time>2016-07-06T12:24:25Z</time>
      </trkpt>
      <trkpt lat="48.01768" lon="-2.26496">
        <ele>153.95</ele>
        <time>2016-07-06T12:24:55Z</time>
      </trkpt>
      <trkpt lat="48.0178" lon="-2.26494">
        <ele>154.91</ele>
        <time>2016-07-06T12:25:25Z</time>
      </trkpt>
      <trkpt lat="48.01794" lon="-2.26501">
        <ele>158.27</ele>
        <time>2016-07-06T12:25:55Z</time>
      </trkpt>
      <trkpt lat="48.01794" lon="-2.26498">
        <ele>159.24</ele>
        <time>2016-07-06T12:26:25Z</time>
      </trkpt>
      <trkpt lat="48.01793" lon="-2.265">
        <ele>158.75</ele>
        <time>2016-07-06T12:26:55Z</time>
      </trkpt>
      <trkpt lat="48.01788" lon="-2.26492">
        <ele>158.75</ele>
        <time>2016-07-06T12:27:25Z</time>
      </trkpt>
      <trkpt lat="48.01792" lon="-2.26498">
        <ele>159.24</ele>
        <time>2016-07-06T12:27:55Z</time>
      </trkpt>
      <trkpt lat="48.01801" lon="-2.265">
        <ele>160.2</ele>
        <time>2016-07-06T12:28:25Z</time>
      </trkpt>
      <trkpt lat="48.01823" lon="-2.26508">
        <ele>166.45</ele>
        <time>2016-07-06T12:28:55Z</time>
      </trkpt>
      <trkpt lat="48.01836" lon="-2.26523">
        <ele>172.21</ele>
        <time>2016-07-06T12:29:25Z</time>
      </trkpt>
      <trkpt lat="48.01845" lon="-2.26542">
        <ele>177.5</ele>
        <time>2016-07-06T12:29:55Z</time>
      </trkpt>
      <trkpt lat="48.01861" lon="-2.26554">
        <ele>181.35</ele>
        <time>2016-07-06T12:30:25Z</time>
      </trkpt>
      <trkpt lat="48.01878" lon="-2.26565">
        <ele>185.67</ele>
        <time>2016-07-06T12:30:55Z</time>
      </trkpt>
      <trkpt lat="48.019" lon="-2.26576">
        <ele>188.08</ele>
        <time>2016-07-06T12:31:25Z</time>
      </trkpt>
      <trkpt lat="48.0192" lon="-2.26573">
        <ele>190.48</ele>
        <time>2016-07-06T12:31:55Z</time>
      </trkpt>
      <trkpt lat="48.01943" lon="-2.26564">
        <ele>191.92</ele>
        <time>2016-07-06T12:32:25Z</time>
      </trkpt>
      <trkpt lat="48.01968" lon="-2.26557">
        <ele>191.92</ele>
        <time>2016-07-06T12:32:55Z</time>
      </trkpt>
      <trkpt lat="48.01993" lon="-2.26562">
        <ele>191.92</ele>
        <time>2016-07-06T12:33:25Z</time>
      </trkpt>
      <trkpt lat="48.01994" lon="-2.26573">
        <ele>191.44</ele>
        <time>2016-07-06T12:33:55Z</time>
      </trkpt>
      <trkpt lat="48.01996" lon="-2.26555">
        <ele>190.48</ele>
        <time>2016-07-06T12:34:25Z</time>
      </trkpt>
      <trkpt lat="48.02" lon="-2.26549">
        <ele>190</ele>
        <time>2016-07-06T12:34:55Z</time>
      </trkpt>
      <trkpt lat="48.02" lon="-2.26541">
        <ele>190</ele>
        <time>2016-07-06T12:35:25Z</time>
      </trkpt>
      <trkpt lat="48.01999" lon="-2.2654">
        <ele>190</ele>
        <time>2016-07-06T12:35:55Z</time>
      </trkpt>
      <trkpt lat="48.01998" lon="-2.26546">
        <ele>190</ele>
        <time>2016-07-06T12:36:25Z</time>
      </trkpt>
      <trkpt lat="48.01999" lon="-2.26553">
        <ele>190</ele>
        <time>2016-07-06T12:36:55Z</time>
      </trkpt>
      <trkpt lat="48.02003" lon="-2.26549">
        <ele>190</ele>
        <time>2016-07-06T12:37:25Z</time>
      </trkpt>
      <trkpt lat="48.02002" lon="-2.26546">
        <ele>190.96</ele>
        <time>2016-07-06T12:37:55Z</time>
      </trkpt>
      <trkpt lat="48.01998" lon="-2.26539">
        <ele>190.48</ele>
        <time>2016-07-06T12:38:25Z</time>
      </trkpt>
      <trkpt lat="48.01997" lon="-2.26537">
        <ele>190.96</ele>
        <time>2016-07-06T12:38:55Z</time>
      </trkpt>
      <trkpt lat="48.02002" lon="-2.26529">
        <ele>191.44</ele>
        <time>2016-07-06T12:39:25Z</time>
      </trkpt>
      <trkpt lat="48.02002" lon="-2.26532">
        <ele>191.92</ele>
        <time>2016-07-06T12:39:55Z</time>
      </trkpt>
      <trkpt lat="48.02004" lon="-2.26536">
        <ele>192.4</ele>
        <time>2016-07-06T12:40:25Z</time>
      </trkpt>
      <trkpt lat="48.02002" lon="-2.2654">
        <ele>192.4</ele>
        <time>2016-07-06T12:40:55Z</time>
      </trkpt>
      <trkpt lat="48.01998" lon="-2.26537">
        <ele>192.4</ele>
        <time>2016-07-06T12:41:25Z</time>
      </trkpt>
      <trkpt lat="48.01998" lon="-2.26538">
        <ele>192.4</ele>
        <time>2016-07-06T12:41:55Z</time>
      </trkpt>
      <trkpt lat="48.02" lon="-2.26534">
        <ele>191.92</ele>
        <time>2016-07-06T12:42:25Z</time>
      </trkpt>
      <trkpt lat="48.02005" lon="-2.26544">
        <ele>193.36</ele>
        <time>2016-07-06T12:42:55Z</time>
      </trkpt>
      <trkpt lat="48.01999" lon="-2.26571">
        <ele>193.36</ele>
        <time>2016-07-06T12:43:25Z</time>
      </trkpt>
      <trkpt lat="48.01993" lon="-2.2661">
        <ele>193.36</ele>
        <time>2016-07-06T12:43:55Z</time>
      </trkpt>
      <trkpt lat="48.0199" lon="-2.26664">
        <ele>192.88</ele>
        <time>2016-07-06T12:44:25Z</time>
      </trkpt>
      <trkpt lat="48.01985" lon="-2.26722">
        <ele>193.84</ele>
        <time>2016-07-06T12:44:55Z</time>
      </trkpt>
      <trkpt lat="48.01983" lon="-2.26749">
        <ele>192.88</ele>
        <time>2016-07-06T12:45:25Z</time>
      </trkpt>
      <trkpt lat="48.01975" lon="-2.26806">
        <ele>191.44</ele>
        <time>2016-07-06T12:45:55Z</time>
      </trkpt>
      <trkpt lat="48.01971" lon="-2.26849">
        <ele>190.48</ele>
        <time>2016-07-06T12:46:25Z</time>
      </trkpt>
      <trkpt lat="48.01966" lon="-2.26908">
        <ele>188.56</ele>
        <time>2016-07-06T12:46:55Z</time>
      </trkpt>
      <trkpt lat="48.01964" lon="-2.26964">
        <ele>186.63</ele>
        <time>2016-07-06T12:47:25Z</time>
      </trkpt>
      <trkpt lat="48.01957" lon="-2.27002">
        <ele>184.71</ele>
        <time>2016-07-06T12:47:55Z</time>
      </trkpt>
      <trkpt lat="48.01945" lon="-2.27055">
        <ele>182.79</ele>
        <time>2016-07-06T12:48:25Z</time>
      </trkpt>
      <trkpt lat="48.01935" lon="-2.27119">
        <ele>181.83</ele>
        <time>2016-07-06T12:48:55Z</time>
      </trkpt>
      <trkpt lat="48.01936" lon="-2.27164">
        <ele>181.35</ele>
        <time>2016-07-06T12:49:25Z</time>
      </trkpt>
      <trkpt lat="48.01927" lon="-2.27218">
        <ele>181.83</ele>
        <time>2016-07-06T12:49:55Z</time>
      </trkpt>
      <trkpt lat="48.0192" lon="-2.27269">
        <ele>180.38</ele>
        <time>2016-07-06T12:50:25Z</time>
      </trkpt>
      <trkpt lat="48.01918" lon="-2.273">
        <ele>180.87</ele>
        <time>2016-07-06T12:50:55Z</time>
      </trkpt>
      <trkpt lat="48.01918" lon="-2.27323">
        <ele>179.9</ele>
        <time>2016-07-06T12:51:25Z</time>
      </trkpt>
      <trkpt lat="48.01917" lon="-2.27319">
        <ele>179.9</ele>
        <time>2016-07-06T12:51:55Z</time>
      </trkpt>
      <trkpt lat="48.01908" lon="-2.27363">
        <ele>178.94</ele>
        <time>2016-07-06T12:52:25Z</time>
      </trkpt>
      <trkpt lat="48.019" lon="-2.2742">
        <ele>177.98</ele>
        <time>2016-07-06T12:52:55Z</time>
      </trkpt>
      <trkpt lat="48.01888" lon="-2.27465">
        <ele>177.5</ele>
        <time>2016-07-06T12:53:25Z</time>
      </trkpt>
      <trkpt lat="48.01856" lon="-2.27472">
        <ele>177.5</ele>
        <time>2016-07-06T12:53:55Z</time>
      </trkpt>
      <trkpt lat="48.01845" lon="-2.27515">
        <ele>177.98</ele>
        <time>2016-07-06T12:54:25Z</time>
      </trkpt>
      <trkpt lat="48.01829" lon="-2.27567">
        <ele>177.5</ele>
        <time>2016-07-06T12:54:55Z</time>
      </trkpt>
      <trkpt lat="48.01814" lon="-2.27614">
        <ele>175.58</ele>
        <time>2016-07-06T12:55:25Z</time>
      </trkpt>
      <trkpt lat="48.01801" lon="-2.2766">
        <ele>173.66</ele>
        <time>2016-07-06T12:55:55Z</time>
      </trkpt>
      <trkpt lat="48.01803" lon="-2.27658">
        <ele>173.66</ele>
        <time>2016-07-06T12:56:25Z</time>
      </trkpt>
      <trkpt lat="48.01818" lon="-2.27671">
        <ele>173.66</ele>
        <time>2016-07-06T12:56:55Z</time>
      </trkpt>
      <trkpt lat="48.01853" lon="-2.27677">
        <ele>173.66</ele>
        <time>2016-07-06T12:57:25Z</time>
      </trkpt>
      <trkpt lat="48.01889" lon="-2.27685">
        <ele>173.17</ele>
        <time>2016-07-06T12:57:55Z</time>
      </trkpt>
      <trkpt lat="48.01925" lon="-2.27674">
        <ele>171.73</ele>
        <time>2016-07-06T12:58:25Z</time>
      </trkpt>
      <trkpt lat="48.0196" lon="-2.2769">
        <ele>170.77</ele>
        <time>2016-07-06T12:58:55Z</time>
      </trkpt>
      <trkpt lat="48.01999" lon="-2.27698">
        <ele>169.33</ele>
        <time>2016-07-06T12:59:25Z</time>
      </trkpt>
      <trkpt lat="48.02037" lon="-2.27703">
        <ele>167.89</ele>
        <time>2016-07-06T12:59:55Z</time>
      </trkpt>
      <trkpt lat="48.02072" lon="-2.27698">
        <ele>165</ele>
        <time>2016-07-06T13:00:25Z</time>
      </trkpt>
      <trkpt lat="48.02075" lon="-2.27694">
        <ele>165</ele>
        <time>2016-07-06T13:00:55Z</time>
      </trkpt>
      <trkpt lat="48.02079" lon="-2.27697">
        <ele>164.52</ele>
        <time>2016-07-06T13:01:25Z</time>
      </trkpt>
      <trkpt lat="48.02077" lon="-2.27719">
        <ele>164.52</ele>
        <time>2016-07-06T13:01:55Z</time>
      </trkpt>
      <trkpt lat="48.0209" lon="-2.27766">
        <ele>164.04</ele>
        <time>2016-07-06T13:02:25Z</time>
      </trkpt>
      <trkpt lat="48.02104" lon="-2.27806">
        <ele>164.04</ele>
        <time>2016-07-06T13:02:55Z</time>
      </trkpt>
      <trkpt lat="48.02103" lon="-2.27856">
        <ele>162.6</ele>
        <time>2016-07-06T13:03:25Z</time>
      </trkpt>
      <trkpt lat="48.02099" lon="-2.27902">
        <ele>161.64</ele>
        <time>2016-07-06T13:03:55Z</time>
      </trkpt>
      <trkpt lat="48.02099" lon="-2.27957">
        <ele>160.68</ele>
        <time>2016-07-06T13:04:25Z</time>
      </trkpt>
      <trkpt lat="48.021" lon="-2.27968">
        <ele>160.2</ele>
        <time>2016-07-06T13:04:55Z</time>
      </trkpt>
      <trkpt lat="48.02103" lon="-2.27975">
        <ele>159.72</ele>
        <time>2016-07-06T13:05:25Z</time>
      </trkpt>
      <trkpt lat="48.02106" lon="-2.27982">
        <ele>159.24</ele>
        <time>2016-07-06T13:05:55Z</time>
      </trkpt>
      <trkpt lat="48.02098" lon="-2.27996">
        <ele>159.24</ele>
        <time>2016-07-06T13:06:25Z</time>
      </trkpt>
      <trkpt lat="48.02065" lon="-2.27996">
        <ele>161.16</ele>
        <time>2016-07-06T13:06:55Z</time>
      </trkpt>
      <trkpt lat="48.02031" lon="-2.27998">
        <ele>163.56</ele>
        <time>2016-07-06T13:07:25Z</time>
      </trkpt>
      <trkpt lat="48.01999" lon="-2.27999">
        <ele>165</ele>
        <time>2016-07-06T13:07:55Z</time>
      </trkpt>
      <trkpt lat="48.01984" lon="-2.27974">
        <ele>165.96</ele>
        <time>2016-07-06T13:08:25Z</time>
      </trkpt>
      <trkpt lat="48.01974" lon="-2.27933">
        <ele>168.37</ele>
        <time>2016-07-06T13:08:55Z</time>
      </trkpt>
      <trkpt lat="48.01959" lon="-2.2791">
        <ele>169.33</ele>
        <time>2016-07-06T13:09:25Z</time>
      </trkpt>
      <trkpt lat="48.0195" lon="-2.27934">
        <ele>170.29</ele>
        <time>2016-07-06T13:09:55Z</time>
      </trkpt>
      <trkpt lat="48.01955" lon="-2.27934">
        <ele>170.29</ele>
        <time>2016-07-06T13:10:25Z</time>
      </trkpt>
      <trkpt lat="48.0198" lon="-2.2795">
        <ele>167.89</ele>
        <time>2016-07-06T13:10:55Z</time>
      </trkpt>
      <trkpt lat="48.0198" lon="-2.27982">
        <ele>165.96</ele>
        <time>2016-07-06T13:11:25Z</time>
      </trkpt>
      <trkpt lat="48.01991" lon="-2.28004">
        <ele>165</ele>
        <time>2016-07-06T13:11:55Z</time>
      </trkpt>
      <trkpt lat="48.01998" lon="-2.28006">
        <ele>164.52</ele>
        <time>2016-07-06T13:12:25Z</time>
      </trkpt>
      <trkpt lat="48.02034" lon="-2.28005">
        <ele>162.12</ele>
        <time>2016-07-06T13:12:55Z</time>
      </trkpt>
      <trkpt lat="48.0206" lon="-2.28001">
        <ele>161.16</ele>
        <time>2016-07-06T13:13:25Z</time>
      </trkpt>
      <trkpt lat="48.02096" lon="-2.28002">
        <ele>158.75</ele>
        <time>2016-07-06T13:13:55Z</time>
      </trkpt>
      <trkpt lat="48.02113" lon="-2.28037">
        <ele>156.35</ele>
        <time>2016-07-06T13:14:25Z</time>
      </trkpt>
      <trkpt lat="48.02114" lon="-2.28089">
        <ele>154.91</ele>
        <time>2016-07-06T13:14:55Z</time>
      </trkpt>
      <trkpt lat="48.02111" lon="-2.28145">
        <ele>153.47</ele>
        <time>2016-07-06T13:15:25Z</time>
      </trkpt>
      <trkpt lat="48.02109" lon="-2.28199">
        <ele>152.51</ele>
        <time>2016-07-06T13:15:55Z</time>
      </trkpt>
      <trkpt lat="48.02106" lon="-2.28253">
        <ele>151.54</ele>
        <time>2016-07-06T13:16:25Z</time>
      </trkpt>
      <trkpt lat="48.02104" lon="-2.28298">
        <ele>151.06</ele>
        <time>2016-07-06T13:16:55Z</time>
      </trkpt>
      <trkpt lat="48.02096" lon="-2.28348">
        <ele>149.62</ele>
        <time>2016-07-06T13:17:25Z</time>
      </trkpt>
      <trkpt lat="48.02091" lon="-2.28416">
        <ele>148.66</ele>
        <time>2016-07-06T13:17:55Z</time>
      </trkpt>
      <trkpt lat="48.02086" lon="-2.28474">
        <ele>148.18</ele>
        <time>2016-07-06T13:18:25Z</time>
      </trkpt>
      <trkpt lat="48.0208" lon="-2.28529">
        <ele>147.7</ele>
        <time>2016-07-06T13:18:55Z</time>
      </trkpt>
      <trkpt lat="48.02071" lon="-2.28581">
        <ele>147.22</ele>
        <time>2016-07-06T13:19:25Z</time>
      </trkpt>
      <trkpt lat="48.02056" lon="-2.28629">
        <ele>146.74</ele>
        <time>2016-07-06T13:19:55Z</time>
      </trkpt>
      <trkpt lat="48.02044" lon="-2.28679">
        <ele>146.26</ele>
        <time>2016-07-06T13:20:25Z</time>
      </trkpt>
      <trkpt lat="48.02036" lon="-2.28721">
        <ele>146.26</ele>
        <time>2016-07-06T13:20:55Z</time>
      </trkpt>
      <trkpt lat="48.02029" lon="-2.28784">
        <ele>143.85</ele>
        <time>2016-07-06T13:21:25Z</time>
      </trkpt>
      <trkpt lat="48.02027" lon="-2.28796">
        <ele>143.37</ele>
        <time>2016-07-06T13:21:55Z</time>
      </trkpt>
      <trkpt lat="48.02032" lon="-2.28785">
        <ele>142.89</ele>
        <time>2016-07-06T13:22:25Z</time>
      </trkpt>
      <trkpt lat="48.0203" lon="-2.28823">
        <ele>142.41</ele>
        <time>2016-07-06T13:22:55Z</time>
      </trkpt>
      <trkpt lat="48.02024" lon="-2.28873">
        <ele>141.93</ele>
        <time>2016-07-06T13:23:25Z</time>
      </trkpt>
      <trkpt lat="48.01996" lon="-2.2888">
        <ele>140.97</ele>
        <time>2016-07-06T13:23:55Z</time>
      </trkpt>
      <trkpt lat="48.0196" lon="-2.28877">
        <ele>140.97</ele>
        <time>2016-07-06T13:24:25Z</time>
      </trkpt>
      <trkpt lat="48.01945" lon="-2.28879">
        <ele>140.01</ele>
        <time>2016-07-06T13:24:55Z</time>
      </trkpt>
      <trkpt lat="48.01936" lon="-2.28877">
        <ele>140.49</ele>
        <time>2016-07-06T13:25:25Z</time>
      </trkpt>
      <trkpt lat="48.01949" lon="-2.28882">
        <ele>140.49</ele>
        <time>2016-07-06T13:25:55Z</time>
      </trkpt>
      <trkpt lat="48.01983" lon="-2.28889">
        <ele>140.97</ele>
        <time>2016-07-06T13:26:25Z</time>
      </trkpt>
      <trkpt lat="48.01989" lon="-2.28917">
        <ele>140.49</ele>
        <time>2016-07-06T13:26:55Z</time>
      </trkpt>
      <trkpt lat="48.01985" lon="-2.28962">
        <ele>140.01</ele>
        <time>2016-07-06T13:27:25Z</time>
      </trkpt>
      <trkpt lat="48.01978" lon="-2.28983">
        <ele>140.01</ele>
        <time>2016-07-06T13:27:55Z</time>
      </trkpt>
      <trkpt lat="48.01979" lon="-2.28992">
        <ele>140.01</ele>
        <time>2016-07-06T13:28:25Z</time>
      </trkpt>
      <trkpt lat="48.01974" lon="-2.28989">
        <ele>139.53</ele>
        <time>2016-07-06T13:28:55Z</time>
      </trkpt>
      <trkpt lat="48.01973" lon="-2.28986">
        <ele>140.01</ele>
        <time>2016-07-06T13:29:25Z</time>
      </trkpt>
      <trkpt lat="48.0197" lon="-2.28986">
        <ele>140.01</ele>
        <time>2016-07-06T13:29:55Z</time>
      </trkpt>
      <trkpt lat="48.01969" lon="-2.28989">
        <ele>140.01</ele>
        <time>2016-07-06T13:30:25Z</time>
      </trkpt>
      <trkpt lat="48.01968" lon="-2.2899">
        <ele>140.01</ele>
        <time>2016-07-06T13:30:55Z</time>
      </trkpt>
      <trkpt lat="48.01969" lon="-2.28988">
        <ele>139.53</ele>
        <time>2016-07-06T13:31:25Z</time>
      </trkpt>
      <trkpt lat="48.01964" lon="-2.28979">
        <ele>140.49</ele>
        <time>2016-07-06T13:31:55Z</time>
      </trkpt>
      <trkpt lat="48.01973" lon="-2.28979">
        <ele>140.01</ele>
        <time>2016-07-06T13:32:25Z</time>
      </trkpt>
      <trkpt lat="48.01972" lon="-2.28993">
        <ele>140.49</ele>
        <time>2016-07-06T13:32:55Z</time>
      </trkpt>
      <trkpt lat="48.0197" lon="-2.28987">
        <ele>140.49</ele>
        <time>2016-07-06T13:33:25Z</time>
      </trkpt>
      <trkpt lat="48.01967" lon="-2.28985">
        <ele>140.97</ele>
        <time>2016-07-06T13:33:55Z</time>
      </trkpt>
      <trkpt lat="48.01974" lon="-2.28975">
        <ele>140.97</ele>
        <time>2016-07-06T13:34:25Z</time>
      </trkpt>
      <trkpt lat="48.01982" lon="-2.28975">
        <ele>140.97</ele>
        <time>2016-07-06T13:34:55Z</time>
      </trkpt>
      <trkpt lat="48.0198" lon="-2.2897">
        <ele>141.45</ele>
        <time>2016-07-06T13:35:25Z</time>
      </trkpt>
      <trkpt lat="48.01975" lon="-2.28992">
        <ele>141.45</ele>
        <time>2016-07-06T13:35:55Z</time>
      </trkpt>
      <trkpt lat="48.01968" lon="-2.28994">
        <ele>141.45</ele>
        <time>2016-07-06T13:36:25Z</time>
      </trkpt>
      <trkpt lat="48.01986" lon="-2.28988">
        <ele>141.45</ele>
        <time>2016-07-06T13:36:55Z</time>
      </trkpt>
      <trkpt lat="48.01994" lon="-2.28949">
        <ele>142.41</ele>
        <time>2016-07-06T13:37:25Z</time>
      </trkpt>
      <trkpt lat="48.02" lon="-2.28907">
        <ele>142.41</ele>
        <time>2016-07-06T13:37:55Z</time>
      </trkpt>
      <trkpt lat="48.01983" lon="-2.28881">
        <ele>142.41</ele>
        <time>2016-07-06T13:38:25Z</time>
      </trkpt>
      <trkpt lat="48.01951" lon="-2.28875">
        <ele>142.89</ele>
        <time>2016-07-06T13:38:55Z</time>
      </trkpt>
      <trkpt lat="48.0193" lon="-2.28852">
        <ele>141.93</ele>
        <time>2016-07-06T13:39:25Z</time>
      </trkpt>
      <trkpt lat="48.0192" lon="-2.28802">
        <ele>141.45</ele>
        <time>2016-07-06T13:39:55Z</time>
      </trkpt>
      <trkpt lat="48.01908" lon="-2.28767">
        <ele>141.45</ele>
        <time>2016-07-06T13:40:25Z</time>
      </trkpt>
      <trkpt lat="48.01901" lon="-2.28715">
        <ele>140.97</ele>
        <time>2016-07-06T13:40:55Z</time>
      </trkpt>
      <trkpt lat="48.0189" lon="-2.28678">
        <ele>141.45</ele>
        <time>2016-07-06T13:41:25Z</time>
      </trkpt>
      <trkpt lat="48.01879" lon="-2.28638">
        <ele>142.89</ele>
        <time>2016-07-06T13:41:55Z</time>
      </trkpt>
      <trkpt lat="48.01876" lon="-2.28646">
        <ele>141.45</ele>
        <time>2016-07-06T13:42:25Z</time>
      </trkpt>
      <trkpt lat="48.01873" lon="-2.2866">
        <ele>141.45</ele>
        <time>2016-07-06T13:42:55Z</time>
      </trkpt>
      <trkpt lat="48.01878" lon="-2.2864">
        <ele>141.93</ele>
        <time>2016-07-06T13:43:25Z</time>
      </trkpt>
      <trkpt lat="48.01871" lon="-2.28595">
        <ele>143.37</ele>
        <time>2016-07-06T13:43:55Z</time>
      </trkpt>
      <trkpt lat="48.01859" lon="-2.28554">
        <ele>145.3</ele>
        <time>2016-07-06T13:44:25Z</time>
      </trkpt>
      <trkpt lat="48.0185" lon="-2.28508">
        <ele>146.74</ele>
        <time>2016-07-06T13:44:55Z</time>
      </trkpt>
      <trkpt lat="48.0184" lon="-2.28472">
        <ele>147.7</ele>
        <time>2016-07-06T13:45:25Z</time>
      </trkpt>
      <trkpt lat="48.01829" lon="-2.28421">
        <ele>148.66</ele>
        <time>2016-07-06T13:45:55Z</time>
      </trkpt>
      <trkpt lat="48.01818" lon="-2.28379">
        <ele>150.58</ele>
        <time>2016-07-06T13:46:25Z</time>
      </trkpt>
      <trkpt lat="48.0181" lon="-2.28334">
        <ele>152.03</ele>
        <time>2016-07-06T13:46:55Z</time>
      </trkpt>
      <trkpt lat="48.01798" lon="-2.28291">
        <ele>152.99</ele>
        <time>2016-07-06T13:47:25Z</time>
      </trkpt>
      <trkpt lat="48.01789" lon="-2.28274">
        <ele>153.47</ele>
        <time>2016-07-06T13:47:55Z</time>
      </trkpt>
      <trkpt lat="48.01777" lon="-2.28261">
        <ele>153.47</ele>
        <time>2016-07-06T13:48:25Z</time>
      </trkpt>
      <trkpt lat="48.01757" lon="-2.2826">
        <ele>152.51</ele>
        <time>2016-07-06T13:48:55Z</time>
      </trkpt>
      <trkpt lat="48.01734" lon="-2.28256">
        <ele>152.51</ele>
        <time>2016-07-06T13:49:25Z</time>
      </trkpt>
      <trkpt lat="48.01731" lon="-2.28254">
        <ele>152.03</ele>
        <time>2016-07-06T13:49:55Z</time>
      </trkpt>
      <trkpt lat="48.01729" lon="-2.2825">
        <ele>152.51</ele>
        <time>2016-07-06T13:50:25Z</time>
      </trkpt>
      <trkpt lat="48.01721" lon="-2.28269">
        <ele>151.54</ele>
        <time>2016-07-06T13:50:55Z</time>
      </trkpt>
      <trkpt lat="48.01691" lon="-2.28276">
        <ele>150.58</ele>
        <time>2016-07-06T13:51:25Z</time>
      </trkpt>
      <trkpt lat="48.01663" lon="-2.28271">
        <ele>149.62</ele>
        <time>2016-07-06T13:51:55Z</time>
      </trkpt>
      <trkpt lat="48.01656" lon="-2.28262">
        <ele>148.66</ele>
        <time>2016-07-06T13:52:25Z</time>
      </trkpt>
      <trkpt lat="48.01624" lon="-2.28269">
        <ele>147.7</ele>
        <time>2016-07-06T13:52:55Z</time>
      </trkpt>
      <trkpt lat="48.0159" lon="-2.2827">
        <ele>145.3</ele>
        <time>2016-07-06T13:53:25Z</time>
      </trkpt>
      <trkpt lat="48.01557" lon="-2.28256">
        <ele>143.37</ele>
        <time>2016-07-06T13:53:55Z</time>
      </trkpt>
      <trkpt lat="48.01523" lon="-2.28262">
        <ele>140.97</ele>
        <time>2016-07-06T13:54:25Z</time>
      </trkpt>
      <trkpt lat="48.01494" lon="-2.28281">
        <ele>139.53</ele>
        <time>2016-07-06T13:54:55Z</time>
      </trkpt>
      <trkpt lat="48.01467" lon="-2.28301">
        <ele>139.53</ele>
        <time>2016-07-06T13:55:25Z</time>
      </trkpt>
      <trkpt lat="48.01463" lon="-2.28304">
        <ele>139.05</ele>
        <time>2016-07-06T13:55:55Z</time>
      </trkpt>
      <trkpt lat="48.01448" lon="-2.28336">
        <ele>139.53</ele>
        <time>2016-07-06T13:56:25Z</time>
      </trkpt>
      <trkpt lat="48.01436" lon="-2.28368">
        <ele>138.09</ele>
        <time>2016-07-06T13:56:55Z</time>
      </trkpt>
      <trkpt lat="48.01434" lon="-2.28366">
        <ele>137.13</ele>
        <time>2016-07-06T13:57:25Z</time>
      </trkpt>
      <trkpt lat="48.01403" lon="-2.28361">
        <ele>135.68</ele>
        <time>2016-07-06T13:57:55Z</time>
      </trkpt>
      <trkpt lat="48.01381" lon="-2.28376">
        <ele>134.24</ele>
        <time>2016-07-06T13:58:25Z</time>
      </trkpt>
      <trkpt lat="48.01348" lon="-2.28408">
        <ele>130.88</ele>
        <time>2016-07-06T13:58:55Z</time>
      </trkpt>
      <trkpt lat="48.01318" lon="-2.28444">
        <ele>129.43</ele>
        <time>2016-07-06T13:59:25Z</time>
      </trkpt>
      <trkpt lat="48.01296" lon="-2.28487">
        <ele>128.47</ele>
        <time>2016-07-06T13:59:55Z</time>
      </trkpt>
      <trkpt lat="48.01273" lon="-2.28517">
        <ele>127.03</ele>
        <time>2016-07-06T14:00:25Z</time>
      </trkpt>
      <trkpt lat="48.01261" lon="-2.28512">
        <ele>124.63</ele>
        <time>2016-07-06T14:00:55Z</time>
      </trkpt>
      <trkpt lat="48.0126" lon="-2.28513">
        <ele>123.67</ele>
        <time>2016-07-06T14:01:25Z</time>
      </trkpt>
      <trkpt lat="48.01258" lon="-2.28514">
        <ele>124.15</ele>
        <time>2016-07-06T14:01:55Z</time>
      </trkpt>
      <trkpt lat="48.01259" lon="-2.28512">
        <ele>124.15</ele>
        <time>2016-07-06T14:02:25Z</time>
      </trkpt>
      <trkpt lat="48.01261" lon="-2.28512">
        <ele>124.63</ele>
        <time>2016-07-06T14:02:55Z</time>
      </trkpt>
      <trkpt lat="48.01258" lon="-2.2851">
        <ele>125.59</ele>
        <time>2016-07-06T14:03:25Z</time>
      </trkpt>
      <trkpt lat="48.01238" lon="-2.28512">
        <ele>123.67</ele>
        <time>2016-07-06T14:03:55Z</time>
      </trkpt>
      <trkpt lat="48.01215" lon="-2.28516">
        <ele>121.26</ele>
        <time>2016-07-06T14:04:25Z</time>
      </trkpt>
      <trkpt lat="48.01182" lon="-2.28517">
        <ele>118.86</ele>
        <time>2016-07-06T14:04:55Z</time>
      </trkpt>
      <trkpt lat="48.01149" lon="-2.28517">
        <ele>115.98</ele>
        <time>2016-07-06T14:05:25Z</time>
      </trkpt>
      <trkpt lat="48.01124" lon="-2.2854">
        <ele>114.05</ele>
        <time>2016-07-06T14:05:55Z</time>
      </trkpt>
      <trkpt lat="48.01112" lon="-2.2857">
        <ele>112.13</ele>
        <time>2016-07-06T14:06:25Z</time>
      </trkpt>
      <trkpt lat="48.01096" lon="-2.28616">
        <ele>109.25</ele>
        <time>2016-07-06T14:06:55Z</time>
      </trkpt>
      <trkpt lat="48.01076" lon="-2.28651">
        <ele>105.4</ele>
        <time>2016-07-06T14:07:25Z</time>
      </trkpt>
      <trkpt lat="48.01053" lon="-2.28679">
        <ele>100.6</ele>
        <time>2016-07-06T14:07:55Z</time>
      </trkpt>
      <trkpt lat="48.01023" lon="-2.2869">
        <ele>98.19</ele>
        <time>2016-07-06T14:08:25Z</time>
      </trkpt>
      <trkpt lat="48.00987" lon="-2.28695">
        <ele>97.23</ele>
        <time>2016-07-06T14:08:55Z</time>
      </trkpt>
      <trkpt lat="48.00957" lon="-2.28707">
        <ele>96.27</ele>
        <time>2016-07-06T14:09:25Z</time>
      </trkpt>
      <trkpt lat="48.00919" lon="-2.28717">
        <ele>95.79</ele>
        <time>2016-07-06T14:09:55Z</time>
      </trkpt>
      <trkpt lat="48.00887" lon="-2.28727">
        <ele>95.79</ele>
        <time>2016-07-06T14:10:25Z</time>
      </trkpt>
      <trkpt lat="48.0086" lon="-2.28731">
        <ele>95.31</ele>
        <time>2016-07-06T14:10:55Z</time>
      </trkpt>
      <trkpt lat="48.00833" lon="-2.28698">
        <ele>94.35</ele>
        <time>2016-07-06T14:11:25Z</time>
      </trkpt>
      <trkpt lat="48.00806" lon="-2.28673">
        <ele>92.9</ele>
        <time>2016-07-06T14:11:55Z</time>
      </trkpt>
      <trkpt lat="48.00785" lon="-2.28695">
        <ele>92.42</ele>
        <time>2016-07-06T14:12:25Z</time>
      </trkpt>
      <trkpt lat="48.00771" lon="-2.28734">
        <ele>93.39</ele>
        <time>2016-07-06T14:12:55Z</time>
      </trkpt>
      <trkpt lat="48.00773" lon="-2.28736">
        <ele>92.9</ele>
        <time>2016-07-06T14:13:25Z</time>
      </trkpt>
      <trkpt lat="48.00771" lon="-2.28743">
        <ele>92.42</ele>
        <time>2016-07-06T14:13:55Z</time>
      </trkpt>
      <trkpt lat="48.0077" lon="-2.28745">
        <ele>92.42</ele>
        <time>2016-07-06T14:14:25Z</time>
      </trkpt>
      <trkpt lat="48.00768" lon="-2.28744">
        <ele>92.42</ele>
        <time>2016-07-06T14:14:55Z</time>
      </trkpt>
      <trkpt lat="48.00765" lon="-2.28747">
        <ele>92.9</ele>
        <time>2016-07-06T14:15:25Z</time>
      </trkpt>
      <trkpt lat="48.00765" lon="-2.28749">
        <ele>92.42</ele>
        <time>2016-07-06T14:15:55Z</time>
      </trkpt>
      <trkpt lat="48.0077" lon="-2.28743">
        <ele>92.9</ele>
        <time>2016-07-06T14:16:25Z</time>
      </trkpt>
      <trkpt lat="48.00771" lon="-2.28747">
        <ele>92.42</ele>
        <time>2016-07-06T14:16:55Z</time>
      </trkpt>
      <trkpt lat="48.00767" lon="-2.28745">
        <ele>92.42</ele>
        <time>2016-07-06T14:17:25Z</time>
      </trkpt>
      <trkpt lat="48.00765" lon="-2.28743">
        <ele>93.39</ele>
        <time>2016-07-06T14:17:55Z</time>
      </trkpt>
      <trkpt lat="48.00768" lon="-2.28742">
        <ele>93.39</ele>
        <time>2016-07-06T14:18:25Z</time>
      </trkpt>
      <trkpt lat="48.00771" lon="-2.28745">
        <ele>93.39</ele>
        <time>2016-07-06T14:18:55Z</time>
      </trkpt>
      <trkpt lat="48.00772" lon="-2.28746">
        <ele>93.39</ele>
        <time>2016-07-06T14:19:25Z</time>
      </trkpt>
      <trkpt lat="48.0077" lon="-2.28745">
        <ele>93.87</ele>
        <time>2016-07-06T14:19:55Z</time>
      </trkpt>
      <trkpt lat="48.00772" lon="-2.28746">
        <ele>93.87</ele>
        <time>2016-07-06T14:20:25Z</time>
      </trkpt>
      <trkpt lat="48.00773" lon="-2.28745">
        <ele>93.39</ele>
        <time>2016-07-06T14:20:55Z</time>
      </trkpt>
      <trkpt lat="48.00774" lon="-2.28747">
        <ele>93.39</ele>
        <time>2016-07-06T14:21:25Z</time>
      </trkpt>
      <trkpt lat="48.00772" lon="-2.28746">
        <ele>94.83</ele>
        <time>2016-07-06T14:21:55Z</time>
      </trkpt>
      <trkpt lat="48.00767" lon="-2.28734">
        <ele>95.31</ele>
        <time>2016-07-06T14:22:25Z</time>
      </trkpt>
      <trkpt lat="48.00738" lon="-2.28735">
        <ele>94.35</ele>
        <time>2016-07-06T14:22:55Z</time>
      </trkpt>
      <trkpt lat="48.0073" lon="-2.28744">
        <ele>93.87</ele>
        <time>2016-07-06T14:23:25Z</time>
      </trkpt>
      <trkpt lat="48.00718" lon="-2.2878">
        <ele>93.39</ele>
        <time>2016-07-06T14:23:55Z</time>
      </trkpt>
      <trkpt lat="48.0069" lon="-2.28804">
        <ele>92.42</ele>
        <time>2016-07-06T14:24:25Z</time>
      </trkpt>
      <trkpt lat="48.00663" lon="-2.28818">
        <ele>91.94</ele>
        <time>2016-07-06T14:24:55Z</time>
      </trkpt>
      <trkpt lat="48.00632" lon="-2.2882">
        <ele>91.46</ele>
        <time>2016-07-06T14:25:25Z</time>
      </trkpt>
      <trkpt lat="48.00605" lon="-2.28806">
        <ele>91.46</ele>
        <time>2016-07-06T14:25:55Z</time>
      </trkpt>
      <trkpt lat="48.00577" lon="-2.28779">
        <ele>90.98</ele>
        <time>2016-07-06T14:26:25Z</time>
      </trkpt>
      <trkpt lat="48.00555" lon="-2.2875">
        <ele>91.46</ele>
        <time>2016-07-06T14:26:55Z</time>
      </trkpt>
      <trkpt lat="48.00561" lon="-2.28709">
        <ele>91.94</ele>
        <time>2016-07-06T14:27:25Z</time>
      </trkpt>
      <trkpt lat="48.0057" lon="-2.2867">
        <ele>92.9</ele>
        <time>2016-07-06T14:27:55Z</time>
      </trkpt>
      <trkpt lat="48.0057" lon="-2.28663">
        <ele>92.42</ele>
        <time>2016-07-06T14:28:25Z</time>
      </trkpt>
      <trkpt lat="48.00568" lon="-2.28667">
        <ele>91.46</ele>
        <time>2016-07-06T14:28:55Z</time>
      </trkpt>
      <trkpt lat="48.00567" lon="-2.28666">
        <ele>91.94</ele>
        <time>2016-07-06T14:29:25Z</time>
      </trkpt>
    </trkseg>
  </trk>
</gpx>